Accueil
METAR-TAF:

METAR-TAF

Aéroports :

Irkoutsk, Russie

Aéroport international d'Irkoutsk

latitude: 52-16N, longitude: 104-19E, altitude: 513 m

Observation

Le bulletin a été fait il y a 12 minutes, à 03:00 UTC
Vent 10 kt de nord-ouest, variant entre ouest et nord
Température 13°C
Humidité 51%
Pression 1018 hPa
Visibilité 10 km ou plus
pas de nuages en-dessous de 1500 mètres et pas de cumulonimbus.

METAR: UIII 250300Z 31005MPS 280V350 CAVOK 13/03 Q1018 R30/CLRD60 NOSIG RMK QFE718/0958

Heure: 11:12 (03:12 UTC)

Prévision

Le bulletin a été fait il y a 1 heure et 12 minutes, à 02:00 UTC
Prévision valable du 25 à 03 UTC au 26 à 03 UTC
Vent 16 kt de ouest/nord-ouest
Visibilité 10 km ou plus
Nuages épars à une hauteur de 2000 ft, Cumulonimbus.
Evoluant progressivement
du 25 à 09 UTC au 25 à 11 UTC
Vent 6 kt de sud/sud-est

TAF: UIII 250200Z 2503/2603 30008MPS 9999 SCT020CB BECMG 2509/2511 16003MPS

Observations et prévisions météorologiques de plus de 4000 aéroports (messages METAR et TAF).

Les stations disponibles sont représentées par des disques jaunes et rouges sur la carte.

Passer la souris dessus pour voir le nom de la station.

Cliquer dessus pour voir les observations et prévisions météorologiques.

Pour changer de carte: cliquez sur les boutons verts avec une croix noire pour zoomer, sur le bouton vert avec un tiret pour effectuer un zoom arrière, ou sur les flèches vertes pour les cartes adjacentes.


METAR-TAF: